sensor_id;sensor_type;location;lat;lon;timestamp;P1;durP1;ratioP1;P2;durP2;ratioP2
26062;SDS011;13837;48.562;12.108;2023-01-28T00:00:53;40.40;;;36.58;;
26062;SDS011;13837;48.562;12.108;2023-01-28T00:03:20;41.58;;;37.65;;
26062;SDS011;13837;48.562;12.108;2023-01-28T00:05:46;40.75;;;37.00;;
26062;SDS011;13837;48.562;12.108;2023-01-28T00:08:12;40.00;;;36.08;;
26062;SDS011;13837;48.562;12.108;2023-01-28T00:10:38;39.22;;;35.70;;
26062;SDS011;13837;48.562;12.108;2023-01-28T00:13:05;39.63;;;35.95;;
26062;SDS011;13837;48.562;12.108;2023-01-28T00:15:31;38.83;;;35.47;;
26062;SDS011;13837;48.562;12.108;2023-01-28T00:17:57;39.55;;;35.90;;
26062;SDS011;13837;48.562;12.108;2023-01-28T00:20:24;38.35;;;34.95;;
26062;SDS011;13837;48.562;12.108;2023-01-28T00:22:50;39.75;;;36.15;;
26062;SDS011;13837;48.562;12.108;2023-01-28T00:25:16;38.60;;;35.00;;
26062;SDS011;13837;48.562;12.108;2023-01-28T00:27:43;39.15;;;35.65;;
26062;SDS011;13837;48.562;12.108;2023-01-28T00:30:10;38.90;;;35.40;;
26062;SDS011;13837;48.562;12.108;2023-01-28T00:32:36;39.97;;;36.15;;
26062;SDS011;13837;48.562;12.108;2023-01-28T00:35:02;40.13;;;36.42;;
26062;SDS011;13837;48.562;12.108;2023-01-28T00:37:28;39.33;;;35.80;;
26062;SDS011;13837;48.562;12.108;2023-01-28T00:39:57;38.70;;;35.10;;
26062;SDS011;13837;48.562;12.108;2023-01-28T00:42:23;39.15;;;35.65;;
26062;SDS011;13837;48.562;12.108;2023-01-28T00:44:49;38.92;;;35.25;;
26062;SDS011;13837;48.562;12.108;2023-01-28T00:47:15;39.60;;;35.95;;
26062;SDS011;13837;48.562;12.108;2023-01-28T00:49:41;39.20;;;35.65;;
26062;SDS011;13837;48.562;12.108;2023-01-28T00:52:07;37.88;;;34.42;;
26062;SDS011;13837;48.562;12.108;2023-01-28T00:54:35;38.33;;;34.92;;
26062;SDS011;13837;48.562;12.108;2023-01-28T00:57:01;39.75;;;35.95;;
26062;SDS011;13837;48.562;12.108;2023-01-28T00:59:27;38.67;;;35.20;;
26062;SDS011;13837;48.562;12.108;2023-01-28T01:01:53;37.92;;;34.53;;
26062;SDS011;13837;48.562;12.108;2023-01-28T01:04:36;40.15;;;36.45;;
26062;SDS011;13837;48.562;12.108;2023-01-28T01:07:02;39.28;;;35.75;;
26062;SDS011;13837;48.562;12.108;2023-01-28T01:09:28;41.03;;;37.30;;
26062;SDS011;13837;48.562;12.108;2023-01-28T01:11:55;41.00;;;37.22;;
26062;SDS011;13837;48.562;12.108;2023-01-28T01:14:21;40.60;;;36.80;;
26062;SDS011;13837;48.562;12.108;2023-01-28T01:16:47;38.95;;;35.67;;
26062;SDS011;13837;48.562;12.108;2023-01-28T01:19:13;41.13;;;37.50;;
26062;SDS011;13837;48.562;12.108;2023-01-28T01:21:41;39.05;;;35.75;;
26062;SDS011;13837;48.562;12.108;2023-01-28T01:24:11;40.25;;;36.63;;
26062;SDS011;13837;48.562;12.108;2023-01-28T01:26:37;40.85;;;37.00;;
26062;SDS011;13837;48.562;12.108;2023-01-28T01:29:03;39.58;;;35.95;;
26062;SDS011;13837;48.562;12.108;2023-01-28T01:31:29;39.10;;;35.60;;
26062;SDS011;13837;48.562;12.108;2023-01-28T01:33:58;39.65;;;36.10;;
26062;SDS011;13837;48.562;12.108;2023-01-28T01:36:24;39.80;;;35.97;;
26062;SDS011;13837;48.562;12.108;2023-01-28T01:38:54;39.88;;;36.25;;
26062;SDS011;13837;48.562;12.108;2023-01-28T01:43:56;39.63;;;36.13;;
26062;SDS011;13837;48.562;12.108;2023-01-28T01:46:26;38.97;;;35.45;;
26062;SDS011;13837;48.562;12.108;2023-01-28T01:48:53;39.72;;;36.28;;
26062;SDS011;13837;48.562;12.108;2023-01-28T01:51:22;40.40;;;36.80;;
26062;SDS011;13837;48.562;12.108;2023-01-28T01:56:17;40.20;;;36.35;;
26062;SDS011;13837;48.562;12.108;2023-01-28T01:58:44;38.75;;;35.35;;
26062;SDS011;13837;48.562;12.108;2023-01-28T02:01:12;41.47;;;37.50;;
26062;SDS011;13837;48.562;12.108;2023-01-28T02:03:46;40.35;;;36.78;;
26062;SDS011;13837;48.562;12.108;2023-01-28T02:06:12;40.47;;;37.03;;
26062;SDS011;13837;48.562;12.108;2023-01-28T02:08:40;40.38;;;36.58;;
26062;SDS011;13837;48.562;12.108;2023-01-28T02:11:07;42.03;;;38.08;;
26062;SDS011;13837;48.562;12.108;2023-01-28T02:13:36;39.97;;;36.40;;
26062;SDS011;13837;48.562;12.108;2023-01-28T02:16:03;39.35;;;36.05;;
26062;SDS011;13837;48.562;12.108;2023-01-28T02:18:30;41.78;;;38.08;;
26062;SDS011;13837;48.562;12.108;2023-01-28T02:23:50;41.17;;;37.10;;
26062;SDS011;13837;48.562;12.108;2023-01-28T02:31:22;42.22;;;38.38;;
26062;SDS011;13837;48.562;12.108;2023-01-28T02:33:51;41.88;;;37.90;;
26062;SDS011;13837;48.562;12.108;2023-01-28T02:36:29;40.15;;;36.55;;
26062;SDS011;13837;48.562;12.108;2023-01-28T02:38:58;40.40;;;36.83;;
26062;SDS011;13837;48.562;12.108;2023-01-28T02:41:27;40.45;;;36.67;;
26062;SDS011;13837;48.562;12.108;2023-01-28T02:43:55;41.45;;;37.60;;
26062;SDS011;13837;48.562;12.108;2023-01-28T02:51:44;41.38;;;37.33;;
26062;SDS011;13837;48.562;12.108;2023-01-28T02:56:56;42.45;;;38.65;;
26062;SDS011;13837;48.562;12.108;2023-01-28T02:59:26;41.58;;;37.83;;
26062;SDS011;13837;48.562;12.108;2023-01-28T03:02:14;39.97;;;36.45;;
26062;SDS011;13837;48.562;12.108;2023-01-28T03:07:10;44.10;;;39.90;;
26062;SDS011;13837;48.562;12.108;2023-01-28T03:09:37;43.35;;;39.33;;
26062;SDS011;13837;48.562;12.108;2023-01-28T03:12:05;41.70;;;37.65;;
26062;SDS011;13837;48.562;12.108;2023-01-28T03:14:54;40.05;;;36.28;;
26062;SDS011;13837;48.562;12.108;2023-01-28T03:17:41;40.30;;;36.70;;
26062;SDS011;13837;48.562;12.108;2023-01-28T03:20:29;41.90;;;38.13;;
26062;SDS011;13837;48.562;12.108;2023-01-28T03:23:19;40.60;;;36.70;;
26062;SDS011;13837;48.562;12.108;2023-01-28T03:26:06;40.63;;;36.83;;
26062;SDS011;13837;48.562;12.108;2023-01-28T03:28:52;38.65;;;35.28;;
26062;SDS011;13837;48.562;12.108;2023-01-28T03:31:38;41.25;;;37.50;;
26062;SDS011;13837;48.562;12.108;2023-01-28T03:34:23;40.25;;;36.60;;
26062;SDS011;13837;48.562;12.108;2023-01-28T03:37:08;41.05;;;37.10;;
26062;SDS011;13837;48.562;12.108;2023-01-28T03:39:47;48.28;;;44.97;;
26062;SDS011;13837;48.562;12.108;2023-01-28T03:42:13;40.83;;;37.13;;
26062;SDS011;13837;48.562;12.108;2023-01-28T03:45:06;41.88;;;37.92;;
26062;SDS011;13837;48.562;12.108;2023-01-28T03:47:33;40.22;;;36.40;;
26062;SDS011;13837;48.562;12.108;2023-01-28T03:50:01;40.63;;;37.00;;
26062;SDS011;13837;48.562;12.108;2023-01-28T03:52:37;40.17;;;36.38;;
26062;SDS011;13837;48.562;12.108;2023-01-28T03:55:29;42.03;;;38.33;;
26062;SDS011;13837;48.562;12.108;2023-01-28T03:57:55;40.03;;;36.38;;
26062;SDS011;13837;48.562;12.108;2023-01-28T04:00:22;39.97;;;36.35;;
26062;SDS011;13837;48.562;12.108;2023-01-28T04:02:48;41.05;;;37.22;;
26062;SDS011;13837;48.562;12.108;2023-01-28T04:05:16;41.10;;;37.13;;
26062;SDS011;13837;48.562;12.108;2023-01-28T04:07:48;39.45;;;35.88;;
26062;SDS011;13837;48.562;12.108;2023-01-28T04:10:54;40.45;;;36.75;;
26062;SDS011;13837;48.562;12.108;2023-01-28T04:13:25;40.20;;;36.60;;
26062;SDS011;13837;48.562;12.108;2023-01-28T04:15:52;40.30;;;36.80;;
26062;SDS011;13837;48.562;12.108;2023-01-28T04:18:18;39.38;;;35.85;;
26062;SDS011;13837;48.562;12.108;2023-01-28T04:20:51;40.60;;;36.72;;
26062;SDS011;13837;48.562;12.108;2023-01-28T04:23:18;40.88;;;37.10;;
26062;SDS011;13837;48.562;12.108;2023-01-28T04:25:44;38.47;;;35.03;;
26062;SDS011;13837;48.562;12.108;2023-01-28T04:28:10;40.92;;;37.13;;
26062;SDS011;13837;48.562;12.108;2023-01-28T04:30:36;39.67;;;35.97;;
26062;SDS011;13837;48.562;12.108;2023-01-28T04:33:21;40.65;;;36.80;;
26062;SDS011;13837;48.562;12.108;2023-01-28T04:35:56;39.65;;;35.58;;
26062;SDS011;13837;48.562;12.108;2023-01-28T04:38:40;38.85;;;35.30;;
26062;SDS011;13837;48.562;12.108;2023-01-28T04:41:39;41.08;;;37.30;;
26062;SDS011;13837;48.562;12.108;2023-01-28T04:44:17;39.85;;;36.22;;
26062;SDS011;13837;48.562;12.108;2023-01-28T04:47:03;39.45;;;36.15;;
26062;SDS011;13837;48.562;12.108;2023-01-28T04:50:07;39.72;;;36.03;;
26062;SDS011;13837;48.562;12.108;2023-01-28T04:52:41;37.85;;;34.47;;
26062;SDS011;13837;48.562;12.108;2023-01-28T04:55:26;39.13;;;35.78;;
26062;SDS011;13837;48.562;12.108;2023-01-28T04:57:52;38.13;;;35.03;;
26062;SDS011;13837;48.562;12.108;2023-01-28T05:00:18;40.60;;;37.08;;
26062;SDS011;13837;48.562;12.108;2023-01-28T05:02:44;40.13;;;36.38;;
26062;SDS011;13837;48.562;12.108;2023-01-28T05:05:10;36.58;;;33.63;;
26062;SDS011;13837;48.562;12.108;2023-01-28T05:07:50;39.38;;;35.58;;
26062;SDS011;13837;48.562;12.108;2023-01-28T05:10:17;38.28;;;35.05;;
26062;SDS011;13837;48.562;12.108;2023-01-28T05:12:46;39.75;;;36.20;;
26062;SDS011;13837;48.562;12.108;2023-01-28T05:15:13;37.95;;;34.47;;
26062;SDS011;13837;48.562;12.108;2023-01-28T05:17:40;36.42;;;33.15;;
26062;SDS011;13837;48.562;12.108;2023-01-28T05:20:09;38.42;;;35.10;;
26062;SDS011;13837;48.562;12.108;2023-01-28T05:22:36;38.40;;;34.90;;
26062;SDS011;13837;48.562;12.108;2023-01-28T05:25:18;39.30;;;35.63;;
26062;SDS011;13837;48.562;12.108;2023-01-28T05:27:49;38.15;;;34.75;;
26062;SDS011;13837;48.562;12.108;2023-01-28T05:30:15;38.58;;;35.15;;
26062;SDS011;13837;48.562;12.108;2023-01-28T05:32:42;38.67;;;35.25;;
26062;SDS011;13837;48.562;12.108;2023-01-28T05:35:08;38.38;;;34.97;;
26062;SDS011;13837;48.562;12.108;2023-01-28T05:37:34;37.00;;;34.00;;
26062;SDS011;13837;48.562;12.108;2023-01-28T05:40:00;39.05;;;35.40;;
26062;SDS011;13837;48.562;12.108;2023-01-28T05:42:27;39.05;;;35.63;;
26062;SDS011;13837;48.562;12.108;2023-01-28T05:45:02;40.47;;;36.72;;
26062;SDS011;13837;48.562;12.108;2023-01-28T05:47:38;38.38;;;35.17;;
26062;SDS011;13837;48.562;12.108;2023-01-28T05:50:23;39.63;;;35.95;;
26062;SDS011;13837;48.562;12.108;2023-01-28T05:53:08;39.72;;;36.13;;
26062;SDS011;13837;48.562;12.108;2023-01-28T05:55:35;38.00;;;34.80;;
26062;SDS011;13837;48.562;12.108;2023-01-28T05:58:02;40.05;;;36.35;;
26062;SDS011;13837;48.562;12.108;2023-01-28T06:00:28;37.80;;;34.35;;
26062;SDS011;13837;48.562;12.108;2023-01-28T06:02:55;37.33;;;33.92;;
26062;SDS011;13837;48.562;12.108;2023-01-28T06:05:22;37.72;;;34.25;;
26062;SDS011;13837;48.562;12.108;2023-01-28T06:07:48;37.92;;;34.47;;
26062;SDS011;13837;48.562;12.108;2023-01-28T06:10:15;37.47;;;34.05;;
26062;SDS011;13837;48.562;12.108;2023-01-28T06:12:44;38.58;;;35.05;;
26062;SDS011;13837;48.562;12.108;2023-01-28T06:15:29;39.10;;;35.47;;
26062;SDS011;13837;48.562;12.108;2023-01-28T06:18:21;44.70;;;40.40;;
26062;SDS011;13837;48.562;12.108;2023-01-28T06:20:48;39.25;;;35.80;;
26062;SDS011;13837;48.562;12.108;2023-01-28T06:23:14;36.90;;;33.53;;
26062;SDS011;13837;48.562;12.108;2023-01-28T06:25:41;37.35;;;34.15;;
26062;SDS011;13837;48.562;12.108;2023-01-28T06:28:12;37.55;;;34.20;;
26062;SDS011;13837;48.562;12.108;2023-01-28T06:30:38;37.92;;;34.42;;
26062;SDS011;13837;48.562;12.108;2023-01-28T06:33:04;37.85;;;34.35;;
26062;SDS011;13837;48.562;12.108;2023-01-28T06:35:30;37.40;;;34.10;;
26062;SDS011;13837;48.562;12.108;2023-01-28T06:37:56;37.45;;;33.90;;
26062;SDS011;13837;48.562;12.108;2023-01-28T06:40:22;37.70;;;34.38;;
26062;SDS011;13837;48.562;12.108;2023-01-28T06:42:50;38.00;;;34.85;;
26062;SDS011;13837;48.562;12.108;2023-01-28T06:45:16;36.97;;;33.65;;
26062;SDS011;13837;48.562;12.108;2023-01-28T06:47:42;38.97;;;35.25;;
26062;SDS011;13837;48.562;12.108;2023-01-28T06:50:08;38.00;;;34.55;;
26062;SDS011;13837;48.562;12.108;2023-01-28T06:52:34;37.67;;;34.17;;
26062;SDS011;13837;48.562;12.108;2023-01-28T06:55:00;37.42;;;34.13;;
26062;SDS011;13837;48.562;12.108;2023-01-28T06:57:26;37.08;;;33.67;;
26062;SDS011;13837;48.562;12.108;2023-01-28T06:59:52;37.45;;;34.13;;
26062;SDS011;13837;48.562;12.108;2023-01-28T07:02:18;37.78;;;34.25;;
26062;SDS011;13837;48.562;12.108;2023-01-28T07:04:44;37.40;;;34.00;;
26062;SDS011;13837;48.562;12.108;2023-01-28T07:07:10;37.53;;;34.08;;
26062;SDS011;13837;48.562;12.108;2023-01-28T07:09:36;37.28;;;33.97;;
26062;SDS011;13837;48.562;12.108;2023-01-28T07:12:02;38.05;;;34.65;;
26062;SDS011;13837;48.562;12.108;2023-01-28T07:14:29;37.83;;;34.40;;
26062;SDS011;13837;48.562;12.108;2023-01-28T07:16:55;36.88;;;33.65;;
26062;SDS011;13837;48.562;12.108;2023-01-28T07:19:21;36.70;;;33.42;;
26062;SDS011;13837;48.562;12.108;2023-01-28T07:21:48;37.28;;;33.80;;
26062;SDS011;13837;48.562;12.108;2023-01-28T07:24:14;37.75;;;34.42;;
26062;SDS011;13837;48.562;12.108;2023-01-28T07:26:40;37.83;;;34.38;;
26062;SDS011;13837;48.562;12.108;2023-01-28T07:29:07;37.17;;;33.78;;
26062;SDS011;13837;48.562;12.108;2023-01-28T07:31:33;37.20;;;33.92;;
26062;SDS011;13837;48.562;12.108;2023-01-28T07:33:59;38.15;;;34.70;;
26062;SDS011;13837;48.562;12.108;2023-01-28T07:36:25;38.08;;;34.75;;
26062;SDS011;13837;48.562;12.108;2023-01-28T07:38:51;38.28;;;34.78;;
26062;SDS011;13837;48.562;12.108;2023-01-28T07:41:17;37.85;;;34.45;;
26062;SDS011;13837;48.562;12.108;2023-01-28T07:43:43;38.22;;;34.67;;
26062;SDS011;13837;48.562;12.108;2023-01-28T07:46:10;38.38;;;34.75;;
26062;SDS011;13837;48.562;12.108;2023-01-28T07:48:38;38.25;;;34.78;;
26062;SDS011;13837;48.562;12.108;2023-01-28T07:51:04;38.50;;;34.97;;
26062;SDS011;13837;48.562;12.108;2023-01-28T07:53:31;39.83;;;36.13;;
26062;SDS011;13837;48.562;12.108;2023-01-28T07:55:57;39.92;;;36.33;;
26062;SDS011;13837;48.562;12.108;2023-01-28T07:58:24;40.25;;;36.25;;
26062;SDS011;13837;48.562;12.108;2023-01-28T08:00:50;38.35;;;34.70;;
26062;SDS011;13837;48.562;12.108;2023-01-28T08:03:16;38.88;;;35.38;;
26062;SDS011;13837;48.562;12.108;2023-01-28T08:05:43;39.22;;;35.63;;
26062;SDS011;13837;48.562;12.108;2023-01-28T08:08:10;43.25;;;39.17;;
26062;SDS011;13837;48.562;12.108;2023-01-28T08:10:37;43.85;;;39.42;;
26062;SDS011;13837;48.562;12.108;2023-01-28T08:13:03;43.80;;;39.60;;
26062;SDS011;13837;48.562;12.108;2023-01-28T08:15:29;44.72;;;40.42;;
26062;SDS011;13837;48.562;12.108;2023-01-28T08:17:56;41.88;;;37.90;;
26062;SDS011;13837;48.562;12.108;2023-01-28T08:20:23;42.58;;;38.72;;
26062;SDS011;13837;48.562;12.108;2023-01-28T08:22:49;42.88;;;38.95;;
26062;SDS011;13837;48.562;12.108;2023-01-28T08:25:15;42.33;;;38.33;;
26062;SDS011;13837;48.562;12.108;2023-01-28T08:27:42;41.08;;;37.15;;
26062;SDS011;13837;48.562;12.108;2023-01-28T08:30:08;45.33;;;40.70;;
26062;SDS011;13837;48.562;12.108;2023-01-28T08:32:34;44.10;;;39.72;;
26062;SDS011;13837;48.562;12.108;2023-01-28T08:35:01;43.67;;;39.28;;
26062;SDS011;13837;48.562;12.108;2023-01-28T08:37:27;40.63;;;36.83;;
26062;SDS011;13837;48.562;12.108;2023-01-28T08:39:53;42.13;;;38.13;;
26062;SDS011;13837;48.562;12.108;2023-01-28T08:42:19;40.42;;;36.42;;
26062;SDS011;13837;48.562;12.108;2023-01-28T08:44:46;44.00;;;39.42;;
26062;SDS011;13837;48.562;12.108;2023-01-28T08:47:13;45.45;;;40.72;;
26062;SDS011;13837;48.562;12.108;2023-01-28T08:49:39;40.40;;;36.42;;
26062;SDS011;13837;48.562;12.108;2023-01-28T08:52:05;38.90;;;35.40;;
26062;SDS011;13837;48.562;12.108;2023-01-28T08:54:31;39.25;;;35.70;;
26062;SDS011;13837;48.562;12.108;2023-01-28T08:56:58;40.13;;;36.42;;
26062;SDS011;13837;48.562;12.108;2023-01-28T08:59:24;42.53;;;38.55;;
26062;SDS011;13837;48.562;12.108;2023-01-28T09:01:50;39.88;;;36.13;;
26062;SDS011;13837;48.562;12.108;2023-01-28T09:04:16;38.30;;;34.67;;
26062;SDS011;13837;48.562;12.108;2023-01-28T09:06:42;38.03;;;34.47;;
26062;SDS011;13837;48.562;12.108;2023-01-28T09:09:08;39.95;;;35.80;;
26062;SDS011;13837;48.562;12.108;2023-01-28T09:11:34;38.10;;;34.60;;
26062;SDS011;13837;48.562;12.108;2023-01-28T09:14:00;39.15;;;35.40;;
26062;SDS011;13837;48.562;12.108;2023-01-28T09:16:26;40.72;;;36.85;;
26062;SDS011;13837;48.562;12.108;2023-01-28T09:18:52;44.78;;;40.10;;
26062;SDS011;13837;48.562;12.108;2023-01-28T09:21:19;41.38;;;37.38;;
26062;SDS011;13837;48.562;12.108;2023-01-28T09:23:45;41.47;;;37.25;;
26062;SDS011;13837;48.562;12.108;2023-01-28T09:26:11;40.08;;;36.10;;
26062;SDS011;13837;48.562;12.108;2023-01-28T09:28:38;39.40;;;35.65;;
26062;SDS011;13837;48.562;12.108;2023-01-28T09:31:06;39.63;;;35.92;;
26062;SDS011;13837;48.562;12.108;2023-01-28T09:33:32;42.85;;;38.53;;
26062;SDS011;13837;48.562;12.108;2023-01-28T09:35:59;38.92;;;35.00;;
26062;SDS011;13837;48.562;12.108;2023-01-28T09:38:25;38.35;;;34.72;;
26062;SDS011;13837;48.562;12.108;2023-01-28T09:40:51;38.15;;;34.40;;
26062;SDS011;13837;48.562;12.108;2023-01-28T09:43:25;39.58;;;35.67;;
26062;SDS011;13837;48.562;12.108;2023-01-28T09:45:57;39.45;;;35.88;;
26062;SDS011;13837;48.562;12.108;2023-01-28T09:48:25;40.08;;;36.08;;
26062;SDS011;13837;48.562;12.108;2023-01-28T09:50:56;38.55;;;34.75;;
26062;SDS011;13837;48.562;12.108;2023-01-28T09:53:24;38.75;;;35.15;;
26062;SDS011;13837;48.562;12.108;2023-01-28T09:55:55;40.75;;;35.53;;
26062;SDS011;13837;48.562;12.108;2023-01-28T09:58:22;38.30;;;34.55;;
26062;SDS011;13837;48.562;12.108;2023-01-28T10:03:36;37.63;;;34.13;;
26062;SDS011;13837;48.562;12.108;2023-01-28T10:11:43;37.75;;;34.35;;
26062;SDS011;13837;48.562;12.108;2023-01-28T10:16:55;38.40;;;34.70;;
26062;SDS011;13837;48.562;12.108;2023-01-28T10:19:23;37.60;;;33.90;;
26062;SDS011;13837;48.562;12.108;2023-01-28T10:21:56;37.58;;;34.17;;
26062;SDS011;13837;48.562;12.108;2023-01-28T10:24:27;38.38;;;34.78;;
26062;SDS011;13837;48.562;12.108;2023-01-28T10:26:54;38.75;;;35.13;;
26062;SDS011;13837;48.562;12.108;2023-01-28T10:29:26;37.92;;;34.38;;
26062;SDS011;13837;48.562;12.108;2023-01-28T10:31:53;39.65;;;35.83;;
26062;SDS011;13837;48.562;12.108;2023-01-28T10:34:19;39.67;;;35.85;;
26062;SDS011;13837;48.562;12.108;2023-01-28T10:36:46;39.22;;;35.53;;
26062;SDS011;13837;48.562;12.108;2023-01-28T10:39:14;38.78;;;35.03;;
26062;SDS011;13837;48.562;12.108;2023-01-28T10:41:40;41.45;;;37.47;;
26062;SDS011;13837;48.562;12.108;2023-01-28T10:44:12;39.80;;;35.92;;
26062;SDS011;13837;48.562;12.108;2023-01-28T10:46:41;40.20;;;36.40;;
26062;SDS011;13837;48.562;12.108;2023-01-28T10:49:26;48.13;;;44.30;;
26062;SDS011;13837;48.562;12.108;2023-01-28T10:51:52;39.15;;;35.45;;
26062;SDS011;13837;48.562;12.108;2023-01-28T10:54:20;40.30;;;36.15;;
26062;SDS011;13837;48.562;12.108;2023-01-28T10:56:48;40.97;;;37.13;;
26062;SDS011;13837;48.562;12.108;2023-01-28T10:59:19;41.20;;;36.90;;
26062;SDS011;13837;48.562;12.108;2023-01-28T11:01:49;39.92;;;35.83;;
26062;SDS011;13837;48.562;12.108;2023-01-28T11:04:37;40.45;;;36.63;;
26062;SDS011;13837;48.562;12.108;2023-01-28T11:07:03;39.90;;;35.85;;
26062;SDS011;13837;48.562;12.108;2023-01-28T11:11:56;41.08;;;36.67;;
26062;SDS011;13837;48.562;12.108;2023-01-28T11:14:24;41.83;;;37.35;;
26062;SDS011;13837;48.562;12.108;2023-01-28T11:16:52;42.25;;;37.78;;
26062;SDS011;13837;48.562;12.108;2023-01-28T11:19:19;42.63;;;38.42;;
26062;SDS011;13837;48.562;12.108;2023-01-28T11:21:50;41.80;;;36.97;;
26062;SDS011;13837;48.562;12.108;2023-01-28T11:24:19;42.33;;;37.90;;
26062;SDS011;13837;48.562;12.108;2023-01-28T11:26:47;41.88;;;37.70;;
26062;SDS011;13837;48.562;12.108;2023-01-28T11:29:20;40.42;;;36.13;;
26062;SDS011;13837;48.562;12.108;2023-01-28T11:31:47;41.72;;;36.85;;
26062;SDS011;13837;48.562;12.108;2023-01-28T11:34:14;48.67;;;38.88;;
26062;SDS011;13837;48.562;12.108;2023-01-28T11:36:48;46.72;;;40.97;;
26062;SDS011;13837;48.562;12.108;2023-01-28T11:39:17;49.80;;;41.47;;
26062;SDS011;13837;48.562;12.108;2023-01-28T11:44:18;43.20;;;38.45;;
26062;SDS011;13837;48.562;12.108;2023-01-28T11:50:01;42.83;;;38.05;;
26062;SDS011;13837;48.562;12.108;2023-01-28T11:57:39;43.30;;;38.72;;
26062;SDS011;13837;48.562;12.108;2023-01-28T12:02:50;46.85;;;39.30;;
26062;SDS011;13837;48.562;12.108;2023-01-28T12:05:32;46.00;;;40.50;;
26062;SDS011;13837;48.562;12.108;2023-01-28T12:15:49;47.28;;;39.70;;
26062;SDS011;13837;48.562;12.108;2023-01-28T12:23:39;45.57;;;38.83;;
26062;SDS011;13837;48.562;12.108;2023-01-28T12:26:12;42.42;;;37.85;;
26062;SDS011;13837;48.562;12.108;2023-01-28T12:31:25;45.85;;;39.83;;
26062;SDS011;13837;48.562;12.108;2023-01-28T12:41:36;48.97;;;39.35;;
26062;SDS011;13837;48.562;12.108;2023-01-28T12:44:04;47.42;;;40.35;;
26062;SDS011;13837;48.562;12.108;2023-01-28T12:46:34;44.42;;;38.80;;
26062;SDS011;13837;48.562;12.108;2023-01-28T12:49:04;47.28;;;39.28;;
26062;SDS011;13837;48.562;12.108;2023-01-28T12:51:37;48.47;;;39.53;;
26062;SDS011;13837;48.562;12.108;2023-01-28T12:54:13;43.78;;;39.08;;
26062;SDS011;13837;48.562;12.108;2023-01-28T12:56:43;45.58;;;39.03;;
26062;SDS011;13837;48.562;12.108;2023-01-28T12:59:21;44.92;;;38.75;;
26062;SDS011;13837;48.562;12.108;2023-01-28T13:01:57;41.40;;;36.95;;
26062;SDS011;13837;48.562;12.108;2023-01-28T13:07:13;42.25;;;36.47;;
26062;SDS011;13837;48.562;12.108;2023-01-28T13:09:43;42.50;;;36.60;;
26062;SDS011;13837;48.562;12.108;2023-01-28T13:12:13;42.92;;;38.45;;
26062;SDS011;13837;48.562;12.108;2023-01-28T13:14:40;42.70;;;38.03;;
26062;SDS011;13837;48.562;12.108;2023-01-28T13:17:10;41.92;;;37.63;;
26062;SDS011;13837;48.562;12.108;2023-01-28T13:19:38;42.55;;;38.03;;
26062;SDS011;13837;48.562;12.108;2023-01-28T13:22:11;43.38;;;38.78;;
26062;SDS011;13837;48.562;12.108;2023-01-28T13:24:37;44.53;;;37.90;;
26062;SDS011;13837;48.562;12.108;2023-01-28T13:27:11;40.92;;;36.58;;
26062;SDS011;13837;48.562;12.108;2023-01-28T13:29:38;43.03;;;38.33;;
26062;SDS011;13837;48.562;12.108;2023-01-28T13:32:25;41.60;;;37.13;;
26062;SDS011;13837;48.562;12.108;2023-01-28T13:35:01;41.15;;;36.33;;
26062;SDS011;13837;48.562;12.108;2023-01-28T13:37:28;41.30;;;37.10;;
26062;SDS011;13837;48.562;12.108;2023-01-28T13:42:40;38.80;;;34.90;;
26062;SDS011;13837;48.562;12.108;2023-01-28T13:47:45;40.00;;;35.92;;
26062;SDS011;13837;48.562;12.108;2023-01-28T13:50:14;40.53;;;36.22;;
26062;SDS011;13837;48.562;12.108;2023-01-28T13:52:57;41.17;;;36.92;;
26062;SDS011;13837;48.562;12.108;2023-01-28T13:55:25;46.97;;;38.47;;
26062;SDS011;13837;48.562;12.108;2023-01-28T14:01:05;43.10;;;38.42;;
26062;SDS011;13837;48.562;12.108;2023-01-28T14:03:37;41.03;;;36.63;;
26062;SDS011;13837;48.562;12.108;2023-01-28T14:14:08;41.05;;;36.72;;
26062;SDS011;13837;48.562;12.108;2023-01-28T14:16:40;40.85;;;36.50;;
26062;SDS011;13837;48.562;12.108;2023-01-28T14:19:10;40.13;;;36.13;;
26062;SDS011;13837;48.562;12.108;2023-01-28T14:21:37;40.20;;;36.15;;
26062;SDS011;13837;48.562;12.108;2023-01-28T14:24:03;41.42;;;37.10;;
26062;SDS011;13837;48.562;12.108;2023-01-28T14:29:32;41.25;;;36.92;;
26062;SDS011;13837;48.562;12.108;2023-01-28T14:31:49;40.72;;;36.50;;
26062;SDS011;13837;48.562;12.108;2023-01-28T14:36:43;43.95;;;39.08;;
26062;SDS011;13837;48.562;12.108;2023-01-28T14:41:42;41.25;;;37.00;;
26062;SDS011;13837;48.562;12.108;2023-01-28T14:44:08;44.95;;;38.58;;
26062;SDS011;13837;48.562;12.108;2023-01-28T14:46:43;44.28;;;39.40;;
26062;SDS011;13837;48.562;12.108;2023-01-28T14:49:17;45.30;;;40.35;;
26062;SDS011;13837;48.562;12.108;2023-01-28T14:54:20;51.05;;;44.67;;
26062;SDS011;13837;48.562;12.108;2023-01-28T14:56:52;47.35;;;40.33;;
26062;SDS011;13837;48.562;12.108;2023-01-28T14:59:24;45.72;;;40.67;;
26062;SDS011;13837;48.562;12.108;2023-01-28T15:01:56;42.00;;;37.50;;
26062;SDS011;13837;48.562;12.108;2023-01-28T15:06:51;43.05;;;38.42;;
26062;SDS011;13837;48.562;12.108;2023-01-28T15:09:18;44.10;;;39.63;;
26062;SDS011;13837;48.562;12.108;2023-01-28T15:11:44;43.80;;;38.88;;
26062;SDS011;13837;48.562;12.108;2023-01-28T15:14:12;42.63;;;38.13;;
26062;SDS011;13837;48.562;12.108;2023-01-28T15:16:40;40.93;;;36.93;;
26062;SDS011;13837;48.562;12.108;2023-01-28T15:19:06;41.92;;;37.65;;
26062;SDS011;13837;48.562;12.108;2023-01-28T15:21:33;41.38;;;37.20;;
26062;SDS011;13837;48.562;12.108;2023-01-28T15:24:00;41.00;;;36.75;;
26062;SDS011;13837;48.562;12.108;2023-01-28T15:26:28;45.67;;;40.88;;
26062;SDS011;13837;48.562;12.108;2023-01-28T15:28:55;43.65;;;39.08;;
26062;SDS011;13837;48.562;12.108;2023-01-28T15:31:26;43.58;;;39.05;;
26062;SDS011;13837;48.562;12.108;2023-01-28T15:36:25;46.28;;;41.63;;
26062;SDS011;13837;48.562;12.108;2023-01-28T15:38:52;46.30;;;40.75;;
26062;SDS011;13837;48.562;12.108;2023-01-28T15:41:18;69.05;;;58.65;;
26062;SDS011;13837;48.562;12.108;2023-01-28T15:43:46;75.82;;;64.05;;
26062;SDS011;13837;48.562;12.108;2023-01-28T15:46:12;52.67;;;47.05;;
26062;SDS011;13837;48.562;12.108;2023-01-28T15:48:43;46.15;;;41.38;;
26062;SDS011;13837;48.562;12.108;2023-01-28T15:51:22;55.92;;;45.25;;
26062;SDS011;13837;48.562;12.108;2023-01-28T15:53:49;55.17;;;48.17;;
26062;SDS011;13837;48.562;12.108;2023-01-28T15:56:22;64.03;;;55.70;;
26062;SDS011;13837;48.562;12.108;2023-01-28T15:58:48;55.92;;;50.20;;
26062;SDS011;13837;48.562;12.108;2023-01-28T16:01:14;50.58;;;43.03;;
26062;SDS011;13837;48.562;12.108;2023-01-28T16:03:41;48.42;;;43.28;;
26062;SDS011;13837;48.562;12.108;2023-01-28T16:06:09;85.22;;;76.80;;
26062;SDS011;13837;48.562;12.108;2023-01-28T16:08:36;59.88;;;53.72;;
26062;SDS011;13837;48.562;12.108;2023-01-28T16:11:04;49.83;;;44.75;;